Time;durP1;ratioP1;P1;durP2;ratioP2;P2;SDS_P1;SDS_P2;PMS_P1;PMS_P2;Temp;Humidity;BMP_temperature;BMP_pressure;BME280_temperature;BME280_humidity;BME280_pressure;Samples;Min_cycle;Max_cycle;Signal;HPM_P1;HPM_P2
2022/10/03 00:01:59;;;;;;;15.07;4.90;;;;;;;13.14;94.34;101259.28;5030368;28;20488;-75
2022/10/03 00:04:43;;;;;;;18.23;4.80;;;;;;;13.12;94.54;101247.81;5041768;28;20433;-75
2022/10/03 00:07:36;;;;;;;9.70;4.80;;;;;;;13.11;94.58;101257.03;5029484;28;20929;-75
2022/10/03 00:10:10;;;;;;;22.60;4.68;;;;;;;13.07;94.59;101264.84;5049451;28;20401;-75
2022/10/03 00:12:54;;;;;;;23.23;5.07;;;;;;;13.06;94.47;101265.06;5046129;28;20752;-75
2022/10/03 00:15:28;;;;;;;19.38;4.80;;;;;;;13.05;94.27;101277.84;5045428;28;20463;-75
2022/10/03 00:18:27;;;;;;;14.60;4.65;;;;;;;13.00;94.06;101275.88;5035603;28;20381;-75
2022/10/03 00:21:08;;;;;;;14.23;4.30;;;;;;;12.97;94.20;101270.06;5041789;28;20791;-75
2022/10/03 00:23:42;;;;;;;13.68;3.92;;;;;;;12.93;94.04;101272.44;5044000;28;20399;-75
2022/10/03 00:26:44;;;;;;;8.67;4.17;;;;;;;12.89;93.78;101274.00;5032693;28;20407;-75
2022/10/03 00:29:16;;;;;;;10.60;3.75;;;;;;;12.84;93.79;101276.59;5041173;28;20428;-75
2022/10/03 00:32:06;;;;;;;4.32;3.78;;;;;;;12.81;93.93;101284.44;5049021;28;20876;-75
2022/10/03 00:34:49;;;;;;;4.60;4.18;;;;;;;12.79;93.51;101279.22;5041508;28;20508;-74
2022/10/03 00:37:39;;;;;;;5.03;3.65;;;;;;;12.80;93.38;101285.47;5031635;28;20451;-75
2022/10/03 00:40:59;;;;;;;7.55;3.90;;;;;;;12.78;93.46;101290.31;5033410;28;20485;-74
2022/10/03 00:43:27;;;;;;;24.23;4.43;;;;;;;12.73;93.21;101287.50;4984111;28;20404;-75
2022/10/03 00:45:58;;;;;;;42.28;5.05;;;;;;;12.70;93.14;101286.09;5019895;28;20488;-75
2022/10/03 00:48:34;;;;;;;7.65;3.85;;;;;;;12.70;93.21;101283.38;5035839;28;20406;-75
2022/10/03 00:51:32;;;;;;;10.75;3.30;;;;;;;12.70;92.72;101285.25;5032811;28;20437;-75
2022/10/03 00:54:05;;;;;;;8.27;3.42;;;;;;;12.67;92.84;101292.00;5039262;28;20414;-75
2022/10/03 00:56:48;;;;;;;8.00;3.13;;;;;;;12.63;92.97;101300.88;5040998;28;20472;-74
2022/10/03 00:59:38;;;;;;;12.75;3.55;;;;;;;12.55;92.82;101301.22;5036986;28;20952;-75
2022/10/03 01:02:38;;;;;;;7.75;3.45;;;;;;;12.55;92.61;101304.78;5028248;28;20413;-75
2022/10/03 01:05:36;;;;;;;12.68;3.65;;;;;;;12.50;92.73;101312.81;5040532;28;20402;-74
2022/10/03 01:08:33;;;;;;;12.27;3.15;;;;;;;12.54;92.99;101313.19;5047691;28;20421;-75
2022/10/03 01:11:24;;;;;;;4.28;3.38;;;;;;;12.57;92.85;101321.69;5055743;28;20652;-74
2022/10/03 01:14:13;;;;;;;5.43;3.38;;;;;;;12.58;93.04;101334.19;5050667;28;20920;-75
2022/10/03 01:16:57;;;;;;;3.53;3.22;;;;;;;12.59;92.85;101329.59;5007960;28;20411;-74
2022/10/03 01:19:54;;;;;;;6.22;3.20;;;;;;;12.58;92.78;101342.38;5055898;28;20452;-75
2022/10/03 01:22:52;;;;;;;7.00;3.37;;;;;;;12.63;92.52;101341.66;5045975;28;20376;-75
2022/10/03 01:26:02;;;;;;;4.07;3.77;;;;;;;12.60;92.29;101348.41;5040516;28;20947;-75
2022/10/03 01:31:45;;;;;;;3.55;3.35;;;;;;;12.51;92.62;101354.44;5060583;28;20443;-75
2022/10/03 01:34:35;;;;;;;3.40;3.20;;;;;;;12.60;92.41;101353.03;5052538;28;20425;-74
2022/10/03 01:37:10;;;;;;;2.85;2.75;;;;;;;12.66;91.88;101349.34;5046617;28;20436;-75
2022/10/03 01:39:57;;;;;;;2.65;2.55;;;;;;;12.67;91.53;101337.41;5053189;28;20409;-74
2022/10/03 01:42:53;;;;;;;2.47;2.33;;;;;;;12.70;91.24;101345.94;5066236;28;20394;-75
2022/10/03 01:45:47;;;;;;;9.75;6.47;;;;;;;12.71;90.84;101344.84;5034293;28;20445;-75
2022/10/03 01:48:29;;;;;;;6.38;4.70;;;;;;;12.63;91.33;101344.38;5042446;28;20409;-75
2022/10/03 01:51:00;;;;;;;4.07;3.10;;;;;;;12.61;91.65;101349.25;5050443;28;20447;-75
2022/10/03 01:53:53;;;;;;;2.83;2.25;;;;;;;12.63;91.91;101349.81;5048340;28;20759;-75
2022/10/03 01:56:38;;;;;;;2.45;2.28;;;;;;;12.67;91.89;101346.41;5065973;28;20882;-74
2022/10/03 01:59:10;;;;;;;2.53;2.35;;;;;;;12.69;91.53;101346.97;5039542;28;20440;-75
2022/10/03 02:02:08;;;;;;;2.10;2.03;;;;;;;12.74;91.57;101352.56;5051189;28;20419;-75
2022/10/03 02:05:05;;;;;;;2.33;2.22;;;;;;;12.77;91.43;101351.25;5052874;28;20869;-75
2022/10/03 02:07:43;;;;;;;2.20;2.10;;;;;;;12.78;91.52;101351.00;5040190;28;20419;-74
2022/10/03 02:10:08;;;;;;;2.40;2.30;;;;;;;12.78;91.19;101340.09;5066991;28;20388;-74
2022/10/03 02:12:44;;;;;;;2.83;1.80;;;;;;;12.81;91.25;101349.72;5065143;28;20417;-74
2022/10/03 02:15:19;;;;;;;4.65;2.33;;;;;;;12.82;91.43;101348.63;5061846;28;20393;-75
2022/10/03 02:18:00;;;;;;;2.45;2.15;;;;;;;12.81;91.21;101336.91;5058950;28;20383;-75
2022/10/03 02:20:31;;;;;;;2.20;2.05;;;;;;;12.82;91.25;101343.19;5064939;28;20392;-75
2022/10/03 02:22:58;;;;;;;2.20;2.10;;;;;;;12.81;90.98;101347.00;5064199;28;20715;-75
2022/10/03 02:25:34;;;;;;;2.05;2.03;;;;;;;12.78;90.89;101337.38;5062289;28;20411;-75
2022/10/03 02:28:17;;;;;;;3.00;2.22;;;;;;;12.74;90.79;101338.13;5058160;28;20418;-74
2022/10/03 02:30:59;;;;;;;3.20;2.90;;;;;;;12.70;90.98;101342.38;5037628;28;20407;-74
2022/10/03 02:34:02;;;;;;;2.85;2.55;;;;;;;12.66;91.17;101347.47;5050336;28;20440;-75
2022/10/03 02:36:58;;;;;;;3.33;3.03;;;;;;;12.64;90.99;101343.31;5036186;28;20412;-75
2022/10/03 02:39:52;;;;;;;3.73;2.77;;;;;;;12.62;90.90;101340.84;5051993;28;20905;-74
2022/10/03 02:42:59;;;;;;;7.63;3.60;;;;;;;12.62;91.08;101342.72;5057411;28;20389;-74
2022/10/03 02:45:54;;;;;;;6.30;3.10;;;;;;;12.59;91.37;101341.31;5039734;28;20878;-75
2022/10/03 02:48:25;;;;;;;4.95;2.85;;;;;;;12.56;91.45;101340.94;5060880;28;20440;-75
2022/10/03 02:51:11;;;;;;;2.97;2.67;;;;;;;12.54;91.17;101330.31;5042158;28;20392;-75
2022/10/03 02:54:02;;;;;;;4.63;3.47;;;;;;;12.52;91.31;101337.03;5049329;28;20410;-74
2022/10/03 02:56:33;;;;;;;8.13;3.47;;;;;;;12.53;91.07;101338.72;5022898;28;20891;-74
2022/10/03 02:59:10;;;;;;;6.45;3.28;;;;;;;12.55;91.21;101334.69;5040599;28;20403;-74
2022/10/03 03:02:13;;;;;;;4.30;3.05;;;;;;;12.57;91.37;101331.75;5055129;28;20819;-74
2022/10/03 03:04:57;;;;;;;6.38;4.55;;;;;;;12.56;91.15;101322.75;5054094;28;20404;-75
2022/10/03 03:07:50;;;;;;;4.70;4.30;;;;;;;12.57;91.20;101332.56;5037264;28;20418;-75
2022/10/03 03:10:54;;;;;;;6.95;4.45;;;;;;;12.59;91.28;101335.03;5043353;28;21449;-75
2022/10/03 03:13:46;;;;;;;7.33;4.17;;;;;;;12.62;91.24;101331.84;5061079;28;20495;-75
2022/10/03 03:16:48;;;;;;;4.95;3.70;;;;;;;12.64;91.23;101335.16;5052075;28;20411;-75
2022/10/03 03:19:43;;;;;;;5.40;3.50;;;;;;;12.66;91.36;101324.88;5048758;28;20458;-75
2022/10/03 03:22:31;;;;;;;3.85;3.55;;;;;;;12.67;91.15;101324.66;5062510;28;20900;-74
2022/10/03 03:25:15;;;;;;;10.65;4.00;;;;;;;12.76;91.02;101328.66;5053177;28;20425;-75
2022/10/03 03:28:10;;;;;;;6.10;4.75;;;;;;;12.80;90.87;101329.84;5049072;28;20417;-75
2022/10/03 03:30:52;;;;;;;4.57;4.18;;;;;;;12.82;90.79;101324.97;5046002;28;20400;-74
2022/10/03 03:33:52;;;;;;;5.60;4.35;;;;;;;12.83;90.70;101339.41;5056666;28;20475;-75
2022/10/03 03:36:29;;;;;;;12.00;8.20;;;;;;;12.83;91.13;101337.53;5050702;28;20407;-75
2022/10/03 03:39:10;;;;;;;6.25;5.65;;;;;;;12.85;91.12;101337.25;5040612;28;20401;-74
2022/10/03 03:41:44;;;;;;;6.50;5.22;;;;;;;12.85;91.39;101339.97;5062829;28;20476;-75
2022/10/03 03:44:25;;;;;;;7.97;4.70;;;;;;;12.86;91.60;101344.38;5057597;28;20410;-75
2022/10/03 03:47:07;;;;;;;7.30;4.95;;;;;;;12.88;91.31;101345.78;5043847;28;20490;-75
2022/10/03 03:49:58;;;;;;;10.13;5.10;;;;;;;12.88;91.55;101342.22;5049423;28;20411;-74
2022/10/03 03:52:42;;;;;;;8.88;5.35;;;;;;;12.86;91.89;101345.19;5049216;28;20401;-75
2022/10/03 03:55:31;;;;;;;7.82;6.85;;;;;;;12.83;91.85;101345.69;5045582;28;20403;-75
2022/10/03 03:58:22;;;;;;;10.93;7.78;;;;;;;12.82;91.92;101340.47;5049771;28;20473;-74
2022/10/03 04:00:57;;;;;;;14.80;9.68;;;;;;;12.82;92.13;101343.19;5060887;28;20855;-74
2022/10/03 04:03:46;;;;;;;14.52;10.38;;;;;;;12.83;91.81;101345.69;5052192;28;20453;-75
2022/10/03 04:06:24;;;;;;;13.00;9.35;;;;;;;12.80;92.40;101359.75;5057845;28;20407;-74
2022/10/03 04:08:58;;;;;;;14.15;9.68;;;;;;;12.80;92.11;101343.44;5034596;28;20413;-75
2022/10/03 04:11:55;;;;;;;14.00;8.00;;;;;;;12.84;92.10;101343.78;5049385;28;20392;-74
2022/10/03 04:14:52;;;;;;;10.88;8.15;;;;;;;12.83;91.89;101347.56;5049630;28;20408;-74
2022/10/03 04:20:29;;;;;;;9.85;7.07;;;;;;;12.81;92.32;101361.38;5013253;28;20401;-75
2022/10/03 04:23:20;;;;;;;10.82;6.35;;;;;;;12.84;92.14;101366.34;5066560;28;20392;-75
2022/10/03 04:25:45;;;;;;;10.25;5.55;;;;;;;12.85;92.22;101368.03;5046825;28;20403;-75
2022/10/03 04:28:35;;;;;;;7.53;5.83;;;;;;;12.83;92.05;101369.31;5049867;28;20485;-75
2022/10/03 04:31:26;;;;;;;8.50;5.75;;;;;;;12.82;92.25;101375.81;5050215;28;20728;-75
2022/10/03 04:34:22;;;;;;;9.43;6.00;;;;;;;12.78;92.30;101377.34;5021191;28;20404;-75
2022/10/03 04:36:55;;;;;;;9.35;6.00;;;;;;;12.76;92.55;101385.78;5056864;28;20419;-74
2022/10/03 04:39:26;;;;;;;9.02;5.40;;;;;;;12.77;92.17;101378.44;5068426;28;20404;-75
2022/10/03 04:42:13;;;;;;;16.40;5.50;;;;;;;12.75;92.23;101383.28;5067316;28;20882;-74
2022/10/03 04:45:00;;;;;;;5.50;4.32;;;;;;;12.75;92.55;101378.66;5050836;28;20415;-75
2022/10/03 04:47:33;;;;;;;6.68;5.00;;;;;;;12.75;92.41;101378.66;5057097;28;20766;-75
2022/10/03 04:50:15;;;;;;;6.07;4.78;;;;;;;12.75;92.12;101372.41;5065738;28;20762;-74
2022/10/03 04:52:45;;;;;;;5.57;4.22;;;;;;;12.73;92.24;101386.25;5050348;28;20403;-74
2022/10/03 04:55:32;;;;;;;7.35;4.82;;;;;;;12.76;91.78;101376.78;5046269;28;20436;-75
2022/10/03 04:58:19;;;;;;;11.52;5.20;;;;;;;12.72;91.80;101383.75;5064455;28;20405;-74
2022/10/03 05:01:19;;;;;;;7.25;4.85;;;;;;;12.69;92.00;101376.91;5040282;28;20401;-74
2022/10/03 05:04:25;;;;;;;6.78;5.30;;;;;;;12.68;91.86;101377.16;5024573;28;20453;-75
2022/10/03 05:07:03;;;;;;;8.73;4.63;;;;;;;12.69;91.77;101379.63;5052187;28;20403;-74
2022/10/03 05:09:55;;;;;;;9.90;4.55;;;;;;;12.71;91.91;101380.19;5048550;28;20419;-75
2022/10/03 05:13:04;;;;;;;8.50;5.13;;;;;;;12.72;91.78;101397.34;5055160;28;20431;-74
2022/10/03 05:16:01;;;;;;;11.65;5.13;;;;;;;12.70;91.75;101399.50;5033960;28;20913;-75
2022/10/03 05:18:48;;;;;;;13.10;6.07;;;;;;;12.71;91.76;101398.44;5043914;28;20408;-74
2022/10/03 05:21:35;;;;;;;15.30;6.88;;;;;;;12.69;92.02;101400.53;5040152;28;20955;-75
2022/10/03 05:24:33;;;;;;;19.67;7.10;;;;;;;12.68;91.85;101402.44;5052968;28;20413;-75
2022/10/03 05:27:18;;;;;;;16.95;6.97;;;;;;;12.67;92.01;101408.13;5059339;28;20731;-75
2022/10/03 05:29:58;;;;;;;21.90;6.88;;;;;;;12.64;92.09;101414.88;5047093;28;20414;-75
2022/10/03 05:32:37;;;;;;;23.52;7.03;;;;;;;12.59;91.96;101412.00;5065690;28;20457;-74
2022/10/03 05:35:22;;;;;;;14.80;6.93;;;;;;;12.59;92.32;101414.72;5035316;28;20436;-74
2022/10/03 05:38:26;;;;;;;13.70;7.05;;;;;;;12.61;92.58;101419.94;5048647;28;20474;-74
2022/10/03 05:40:58;;;;;;;10.55;6.22;;;;;;;12.64;92.19;101411.31;5006389;28;20400;-75
2022/10/03 05:43:47;;;;;;;7.65;6.00;;;;;;;12.63;92.07;101415.91;5054613;28;20478;-75
2022/10/03 05:46:31;;;;;;;9.83;6.93;;;;;;;12.65;92.02;101416.50;5049806;28;20485;-74
2022/10/03 05:49:34;;;;;;;7.67;5.97;;;;;;;12.68;92.02;101421.47;5055793;28;20474;-74
2022/10/03 05:52:18;;;;;;;12.18;5.80;;;;;;;12.69;92.35;101420.41;5034649;28;20412;-75
2022/10/03 05:54:54;;;;;;;10.35;5.75;;;;;;;12.70;92.41;101424.78;5045935;28;20803;-75
2022/10/03 05:57:51;;;;;;;8.68;6.03;;;;;;;12.74;92.22;101427.88;5047941;28;20406;-74
2022/10/03 06:00:23;;;;;;;5.57;4.97;;;;;;;12.75;92.19;101443.09;5037225;28;21006;-74
2022/10/03 06:03:07;;;;;;;6.20;4.68;;;;;;;12.75;91.98;101441.22;5042444;28;20409;-74
2022/10/03 06:05:52;;;;;;;6.17;5.07;;;;;;;12.77;92.35;101447.28;5033697;28;20469;-74
2022/10/03 06:08:32;;;;;;;6.53;5.93;;;;;;;12.81;92.14;101450.34;5050850;28;20857;-75
2022/10/03 06:11:25;;;;;;;7.77;6.43;;;;;;;12.82;91.77;101447.38;5048908;28;20438;-74
2022/10/03 06:14:09;;;;;;;8.48;6.55;;;;;;;12.84;91.63;101449.88;5052307;28;20414;-75
2022/10/03 06:16:55;;;;;;;9.15;6.25;;;;;;;12.84;91.62;101453.41;5049112;28;20758;-75
2022/10/03 06:19:49;;;;;;;7.47;5.73;;;;;;;12.84;91.78;101464.28;5051909;28;20408;-74
2022/10/03 06:22:24;;;;;;;10.27;6.65;;;;;;;12.85;91.80;101459.69;5054490;28;20394;-74
2022/10/03 06:25:02;;;;;;;12.48;9.35;;;;;;;12.87;92.04;101463.00;5026403;28;20467;-75
2022/10/03 06:28:01;;;;;;;21.42;13.75;;;;;;;12.87;92.10;101469.28;5048580;28;20392;-75
2022/10/03 06:30:50;;;;;;;14.13;9.68;;;;;;;12.85;92.06;101468.66;5057895;28;20397;-74
2022/10/03 06:33:52;;;;;;;7.32;6.60;;;;;;;12.83;92.08;101465.38;5041318;28;20922;-75
2022/10/03 06:36:41;;;;;;;8.95;7.15;;;;;;;12.86;92.12;101475.78;5032904;28;20411;-74
2022/10/03 06:39:37;;;;;;;8.52;5.10;;;;;;;12.92;91.90;101482.16;5048084;28;20396;-74
2022/10/03 06:42:14;;;;;;;6.95;5.60;;;;;;;12.94;91.65;101474.63;5057373;28;20430;-74
2022/10/03 06:44:56;;;;;;;8.47;5.27;;;;;;;12.92;91.27;101477.56;5050235;28;20492;-74
2022/10/03 06:47:50;;;;;;;8.27;4.83;;;;;;;12.92;91.21;101477.56;5042313;28;20487;-75
2022/10/03 06:50:41;;;;;;;5.78;4.78;;;;;;;12.90;91.13;101481.59;5027228;28;20413;-75
2022/10/03 06:53:20;;;;;;;10.85;5.05;;;;;;;12.88;91.45;101479.09;5020933;28;20412;-75
2022/10/03 06:56:14;;;;;;;6.55;5.20;;;;;;;12.91;91.30;101494.09;5048466;28;20868;-75
2022/10/03 06:58:51;;;;;;;6.80;5.10;;;;;;;12.94;91.19;101494.47;5042478;28;21241;-75
2022/10/03 07:01:51;;;;;;;6.78;5.32;;;;;;;13.02;91.12;101493.28;5042732;28;20402;-76
2022/10/03 07:04:28;;;;;;;8.85;5.72;;;;;;;13.09;91.08;101493.22;5042812;28;20453;-76
2022/10/03 07:07:32;;;;;;;8.82;4.90;;;;;;;13.15;90.92;101489.53;5046745;28;20512;-75
2022/10/03 07:10:03;;;;;;;7.63;5.28;;;;;;;13.17;90.91;101493.66;5034731;28;20407;-75
2022/10/03 07:12:53;;;;;;;5.27;4.27;;;;;;;13.14;91.04;101494.16;5041938;28;20414;-76
2022/10/03 07:15:42;;;;;;;5.03;4.30;;;;;;;13.19;90.93;101490.72;5040182;28;20399;-75
2022/10/03 07:18:21;;;;;;;8.13;4.70;;;;;;;13.19;90.85;101493.44;5056240;28;20432;-75
2022/10/03 07:20:58;;;;;;;7.53;4.68;;;;;;;13.21;90.84;101500.31;5048960;28;20481;-75
2022/10/03 07:23:45;;;;;;;5.00;4.50;;;;;;;13.24;90.83;101496.28;5039225;28;20431;-76
2022/10/03 07:26:29;;;;;;;7.13;4.40;;;;;;;13.24;90.36;101505.28;5038455;28;20388;-75
2022/10/03 07:29:06;;;;;;;5.30;3.90;;;;;;;13.25;90.67;101506.09;5053131;28;20502;-75
2022/10/03 07:31:31;;;;;;;6.00;3.90;;;;;;;13.26;90.63;101513.22;5032381;28;20420;-75
2022/10/03 07:34:31;;;;;;;6.27;3.97;;;;;;;13.24;90.89;101509.88;5022627;28;20407;-75
2022/10/03 07:40:29;;;;;;;7.75;4.40;;;;;;;13.35;90.37;101519.94;5050587;28;20427;-75
2022/10/03 07:43:13;;;;;;;5.90;4.50;;;;;;;13.37;90.65;101517.84;5064109;28;20380;-75
2022/10/03 07:46:05;;;;;;;8.80;5.00;;;;;;;13.42;90.93;101521.50;5035327;28;20401;-75
2022/10/03 07:48:49;;;;;;;6.10;4.87;;;;;;;13.52;90.35;101529.06;5064843;28;20498;-75
2022/10/03 07:51:45;;;;;;;9.05;5.35;;;;;;;13.61;90.29;101524.06;5048300;28;20405;-75
2022/10/03 07:54:38;;;;;;;10.30;6.05;;;;;;;13.69;90.20;101526.44;5056092;28;20785;-75
2022/10/03 07:57:40;;;;;;;8.63;6.00;;;;;;;13.73;90.17;101525.69;5054646;28;20373;-75
2022/10/03 08:00:14;;;;;;;9.18;6.03;;;;;;;13.77;89.82;101526.06;5056586;28;20415;-75
2022/10/03 08:03:06;;;;;;;6.97;5.93;;;;;;;13.82;90.16;101524.28;5041502;28;20435;-75
2022/10/03 08:05:48;;;;;;;11.13;6.47;;;;;;;13.89;89.80;101527.72;5045666;28;20398;-75
2022/10/03 08:08:27;;;;;;;11.18;7.03;;;;;;;13.95;89.59;101532.19;5021222;28;20869;-75
2022/10/03 08:11:31;;;;;;;9.13;6.40;;;;;;;14.02;89.51;101527.44;5040619;28;20500;-75
2022/10/03 08:14:31;;;;;;;13.02;8.07;;;;;;;14.10;89.03;101533.53;5038681;28;20830;-75
2022/10/03 08:17:15;;;;;;;13.50;8.00;;;;;;;14.10;89.09;101528.09;5032937;28;20505;-75
2022/10/03 08:20:04;;;;;;;12.27;8.20;;;;;;;14.11;88.86;101527.88;5037158;28;20457;-75
2022/10/03 08:22:32;;;;;;;13.53;9.20;;;;;;;14.18;88.73;101530.47;5034498;28;20403;-75
2022/10/03 08:25:06;;;;;;;16.83;10.10;;;;;;;14.20;88.69;101528.31;5034430;28;20496;-75
2022/10/03 08:27:40;;;;;;;20.03;11.80;;;;;;;14.25;88.22;101525.69;5018880;28;20509;-75
2022/10/03 08:30:21;;;;;;;22.35;12.60;;;;;;;14.29;87.94;101524.94;5035788;28;20501;-75
2022/10/03 08:33:45;;;;;;;21.67;13.18;;;;;;;14.34;87.92;101532.44;5042923;28;20419;-75
2022/10/03 08:36:30;;;;;;;25.23;13.10;;;;;;;14.44;87.43;101535.34;5036942;28;20966;-75
2022/10/03 08:39:09;;;;;;;29.30;15.10;;;;;;;14.44;87.33;101536.19;5035242;28;20504;-75
2022/10/03 08:42:10;;;;;;;31.08;17.17;;;;;;;14.50;86.97;101546.13;5036864;28;20903;-75
2022/10/03 08:45:04;;;;;;;28.05;15.35;;;;;;;14.47;87.03;101541.16;5033169;28;20462;-75
2022/10/03 08:48:03;;;;;;;25.13;14.13;;;;;;;14.38;86.95;101548.06;5032903;28;20411;-75
2022/10/03 08:50:43;;;;;;;21.40;13.60;;;;;;;14.38;87.33;101547.25;5040244;28;20425;-75
2022/10/03 08:53:48;;;;;;;18.30;12.68;;;;;;;14.45;86.84;101545.19;5050742;28;20428;-75
2022/10/03 08:56:39;;;;;;;22.63;12.70;;;;;;;14.64;85.98;101535.72;5045250;28;20408;-75
2022/10/03 08:59:58;;;;;;;22.58;12.65;;;;;;;14.84;85.17;101535.25;5068568;28;20379;-75
2022/10/03 09:02:34;;;;;;;21.55;12.98;;;;;;;14.90;84.51;101540.56;5005911;28;20400;-74
2022/10/03 09:05:15;;;;;;;19.38;12.07;;;;;;;14.80;84.33;101542.28;5065739;28;20465;-75
2022/10/03 09:08:15;;;;;;;19.52;11.45;;;;;;;14.65;84.09;101539.28;5060835;28;20494;-75
2022/10/03 09:10:49;;;;;;;25.02;12.30;;;;;;;14.52;84.53;101541.22;5035290;28;20421;-75
2022/10/03 09:13:36;;;;;;;18.20;11.13;;;;;;;14.43;84.61;101537.25;5035881;28;20407;-74
2022/10/03 09:16:23;;;;;;;22.17;11.60;;;;;;;14.42;84.63;101532.06;5038628;28;20959;-74
2022/10/03 09:18:54;;;;;;;25.15;12.25;;;;;;;14.50;84.99;101539.81;5045576;28;20418;-74
2022/10/03 09:21:28;;;;;;;20.15;11.82;;;;;;;14.51;84.44;101528.69;5035915;28;20418;-75
2022/10/03 09:24:39;;;;;;;19.15;11.77;;;;;;;14.56;83.65;101533.38;5034295;28;20894;-75
2022/10/03 09:27:19;;;;;;;24.63;12.43;;;;;;;14.61;83.09;101532.66;5019737;28;20422;-75
2022/10/03 09:30:21;;;;;;;21.52;12.05;;;;;;;14.87;83.03;101523.84;5031795;28;20414;-75
2022/10/03 09:33:24;;;;;;;19.25;10.93;;;;;;;15.49;80.22;101524.56;5033166;28;20424;-75
2022/10/03 09:36:21;;;;;;;22.73;12.25;;;;;;;15.65;78.77;101529.19;5022196;28;20418;-75
2022/10/03 09:38:58;;;;;;;15.02;10.60;;;;;;;15.84;78.16;101530.50;5033760;28;20418;-74
2022/10/03 09:41:51;;;;;;;16.65;10.15;;;;;;;16.88;75.39;101524.84;5039571;28;20775;-75
2022/10/03 09:44:50;;;;;;;15.45;9.30;;;;;;;17.29;71.62;101524.06;5041784;28;20403;-75
2022/10/03 09:47:31;;;;;;;20.25;9.23;;;;;;;16.50;73.87;101521.16;5035402;28;20407;-74
2022/10/03 09:50:50;;;;;;;18.67;11.40;;;;;;;16.16;76.22;101519.72;5032859;28;20985;-74
2022/10/03 09:53:52;;;;;;;20.85;11.93;;;;;;;16.44;76.64;101522.19;5032970;28;21060;-75
2022/10/03 09:56:55;;;;;;;20.40;10.40;;;;;;;17.57;73.65;101525.66;5029924;28;20418;-74
2022/10/03 09:59:33;;;;;;;19.90;10.75;;;;;;;18.68;70.56;101531.56;5032848;28;20443;-75
2022/10/03 10:02:04;;;;;;;15.10;9.82;;;;;;;19.58;66.84;101533.47;5053464;28;20398;-74
2022/10/03 10:04:32;;;;;;;20.63;10.77;;;;;;;19.34;66.82;101540.63;5037605;28;20501;-74
2022/10/03 10:07:06;;;;;;;20.65;10.57;;;;;;;19.03;66.08;101534.31;5032889;28;20444;-75
2022/10/03 10:09:39;;;;;;;15.77;9.98;;;;;;;19.11;67.17;101533.78;5032098;28;20769;-75
2022/10/03 10:12:29;;;;;;;16.23;8.43;;;;;;;19.97;64.69;101530.03;5024992;28;20733;-75
2022/10/03 10:15:05;;;;;;;12.97;6.37;;;;;;;20.50;64.06;101532.00;5018808;28;20499;-74
2022/10/03 10:17:43;;;;;;;12.88;6.78;;;;;;;20.92;62.16;101533.34;5031534;28;20418;-75
2022/10/03 10:20:23;;;;;;;12.00;5.18;;;;;;;20.65;60.60;101531.88;5017139;28;20432;-74
2022/10/03 10:23:09;;;;;;;13.68;5.07;;;;;;;19.84;63.26;101525.97;5021957;28;20445;-74
2022/10/03 10:25:59;;;;;;;8.95;4.72;;;;;;;21.43;58.40;101523.56;5044123;28;20509;-74
2022/10/03 10:28:43;;;;;;;8.55;4.20;;;;;;;22.50;54.79;101518.34;5030984;28;20482;-75
2022/10/03 10:31:53;;;;;;;11.98;5.03;;;;;;;22.79;53.08;101522.94;5032527;28;20414;-75
2022/10/03 10:34:31;;;;;;;11.30;5.50;;;;;;;20.41;58.11;101528.22;5017416;28;20410;-75
2022/10/03 10:37:43;;;;;;;13.90;5.78;;;;;;;19.12;62.11;101518.94;5036275;28;20406;-74
2022/10/03 10:40:15;;;;;;;9.98;4.78;;;;;;;22.24;53.85;101517.91;5018093;28;20415;-74
2022/10/03 10:43:29;;;;;;;12.47;5.10;;;;;;;23.97;48.64;101513.03;5040007;28;20441;-75
2022/10/03 10:46:16;;;;;;;9.85;4.70;;;;;;;24.00;47.37;101520.72;4987147;28;20403;-75
2022/10/03 10:49:38;;;;;;;7.65;4.05;;;;;;;24.70;45.69;101521.91;5058175;28;20434;-74
2022/10/03 10:52:25;;;;;;;7.45;4.00;;;;;;;25.72;43.39;101523.72;5032070;28;20413;-74
2022/10/03 10:54:50;;;;;;;9.07;4.40;;;;;;;26.28;42.28;101522.09;5036019;28;20419;-75
2022/10/03 10:57:44;;;;;;;10.70;4.53;;;;;;;26.77;41.15;101526.41;5033575;28;20432;-75
2022/10/03 11:01:00;;;;;;;6.25;4.43;;;;;;;26.93;41.37;101522.00;5032846;28;20412;-74
2022/10/03 11:03:50;;;;;;;7.45;3.55;;;;;;;26.21;42.53;101517.03;5032950;28;20663;-75
2022/10/03 11:06:33;;;;;;;10.52;3.83;;;;;;;25.72;44.26;101523.72;5020199;28;20479;-75
2022/10/03 11:09:20;;;;;;;9.10;3.65;;;;;;;26.11;43.68;101517.34;5038468;28;20430;-75
2022/10/03 11:12:36;;;;;;;9.43;3.63;;;;;;;26.95;41.21;101519.72;5058094;28;20378;-75
2022/10/03 11:15:26;;;;;;;6.68;2.17;;;;;;;27.13;40.67;101517.72;5044233;28;20464;-75
2022/10/03 11:18:03;;;;;;;7.90;3.13;;;;;;;26.65;41.62;101517.88;5062096;28;20405;-75
2022/10/03 11:21:03;;;;;;;5.30;2.33;;;;;;;26.29;41.59;101507.09;5051431;28;20461;-75
2022/10/03 11:24:01;;;;;;;5.53;2.17;;;;;;;25.30;42.60;101514.03;5044397;28;20470;-75
2022/10/03 11:26:58;;;;;;;5.82;2.05;;;;;;;25.03;43.09;101514.19;5046915;28;20564;-75
2022/10/03 11:29:42;;;;;;;6.07;1.85;;;;;;;25.05;42.60;101508.34;5044160;28;20910;-75
2022/10/03 11:32:34;;;;;;;17.45;2.70;;;;;;;25.25;43.06;101507.81;5043261;28;20426;-75
2022/10/03 11:35:29;;;;;;;7.72;2.30;;;;;;;25.15;42.03;101505.31;5050826;28;20406;-75
2022/10/03 11:38:09;;;;;;;8.40;2.67;;;;;;;24.55;43.44;101497.34;5042977;28;20414;-75
2022/10/03 11:40:42;;;;;;;8.75;2.70;;;;;;;24.23;43.17;101494.75;5041488;28;20406;-75
2022/10/03 11:43:32;;;;;;;5.25;2.45;;;;;;;24.14;43.46;101491.91;5052427;28;20904;-75
2022/10/03 11:46:25;;;;;;;7.55;2.53;;;;;;;24.26;43.11;101489.44;5047306;28;20457;-75
2022/10/03 11:49:05;;;;;;;10.27;2.25;;;;;;;24.36;42.98;101493.91;5056222;28;20421;-75
2022/10/03 11:51:56;;;;;;;5.13;2.33;;;;;;;25.23;41.03;101483.16;5064741;28;20444;-74
2022/10/03 11:54:53;;;;;;;6.13;2.60;;;;;;;26.22;38.60;101481.72;5052101;28;20880;-75
2022/10/03 11:57:29;;;;;;;7.03;1.98;;;;;;;26.64;37.64;101485.69;5057045;28;20811;-75
2022/10/03 12:00:16;;;;;;;4.22;1.85;;;;;;;26.71;36.47;101478.47;5044311;28;20447;-75
2022/10/03 12:03:00;;;;;;;6.32;2.05;;;;;;;26.24;36.94;101477.50;5042118;28;20522;-74
2022/10/03 12:05:47;;;;;;;5.28;2.05;;;;;;;24.31;40.63;101474.63;5038694;28;20403;-75
2022/10/03 12:11:20;;;;;;;6.53;2.50;;;;;;;22.15;46.29;101470.00;5052146;28;20414;-74
2022/10/03 12:14:07;;;;;;;5.40;2.00;;;;;;;21.70;46.74;101471.38;5050960;28;20395;-75
2022/10/03 12:17:06;;;;;;;5.00;2.20;;;;;;;21.67;46.96;101468.38;5045962;28;20425;-75
2022/10/03 12:19:49;;;;;;;6.87;2.10;;;;;;;21.82;47.13;101459.94;5049857;28;20410;-74
2022/10/03 12:22:30;;;;;;;3.65;2.03;;;;;;;21.81;46.86;101454.69;5049534;28;20918;-75
2022/10/03 12:25:20;;;;;;;5.35;2.40;;;;;;;21.70;46.96;101459.53;5060083;28;20398;-75
2022/10/03 12:28:11;;;;;;;5.80;2.08;;;;;;;21.73;46.53;101459.75;5055649;28;20380;-74
2022/10/03 12:30:46;;;;;;;6.65;2.40;;;;;;;21.74;46.81;101455.88;5036327;28;20496;-75
2022/10/03 12:33:31;;;;;;;6.88;2.42;;;;;;;21.79;46.49;101449.47;5056591;28;20418;-75
2022/10/03 12:36:14;;;;;;;5.38;2.20;;;;;;;21.98;46.51;101455.88;5046673;28;20414;-74
2022/10/03 12:38:45;;;;;;;4.47;2.10;;;;;;;21.96;46.54;101455.38;5066092;28;20442;-75
2022/10/03 12:41:45;;;;;;;5.25;2.22;;;;;;;21.71;46.55;101456.47;5055754;28;20779;-75
2022/10/03 12:44:28;;;;;;;3.25;1.88;;;;;;;21.23;47.18;101451.25;5054419;28;20485;-75
2022/10/03 12:47:18;;;;;;;13.68;2.85;;;;;;;20.93;48.72;101441.31;5048493;28;20510;-75
2022/10/03 12:50:27;;;;;;;6.32;2.33;;;;;;;20.84;49.61;101451.31;5064237;28;20415;-75
2022/10/03 12:52:56;;;;;;;4.55;3.00;;;;;;;20.68;50.36;101445.94;5056771;28;20445;-75
2022/10/03 12:55:32;;;;;;;6.70;2.90;;;;;;;20.44;51.06;101438.72;5052463;28;20468;-74
2022/10/03 12:58:03;;;;;;;5.63;3.10;;;;;;;20.32;51.86;101438.25;5060393;28;20396;-75
2022/10/03 13:00:58;;;;;;;8.35;3.22;;;;;;;20.29;52.19;101425.84;5046495;28;20399;-75
2022/10/03 13:03:37;;;;;;;10.10;3.45;;;;;;;20.23;52.73;101424.22;5047962;28;20911;-75
2022/10/03 13:06:28;;;;;;;7.15;3.05;;;;;;;20.33;52.93;101435.19;5051905;28;20887;-74